sensor_id;sensor_type;location;lat;lon;timestamp;P1;durP1;ratioP1;P2;durP2;ratioP2
78901;SDS011;70441;44.758;37.686;2024-03-08T00:00:42;18.98;;;10.27;;
78901;SDS011;70441;44.758;37.686;2024-03-08T00:01:44;13.73;;;7.55;;
78901;SDS011;70441;44.758;37.686;2024-03-08T00:02:45;13.40;;;7.88;;
78901;SDS011;70441;44.758;37.686;2024-03-08T00:03:48;13.57;;;7.80;;
78901;SDS011;70441;44.758;37.686;2024-03-08T00:04:49;12.50;;;7.15;;
78901;SDS011;70441;44.758;37.686;2024-03-08T00:05:50;14.90;;;8.00;;
78901;SDS011;70441;44.758;37.686;2024-03-08T00:06:52;15.50;;;8.25;;
78901;SDS011;70441;44.758;37.686;2024-03-08T00:07:53;16.02;;;8.43;;
78901;SDS011;70441;44.758;37.686;2024-03-08T00:08:55;13.73;;;7.68;;
78901;SDS011;70441;44.758;37.686;2024-03-08T00:09:56;13.93;;;7.80;;
78901;SDS011;70441;44.758;37.686;2024-03-08T00:10:58;12.52;;;5.43;;
78901;SDS011;70441;44.758;37.686;2024-03-08T00:11:59;14.23;;;8.18;;
78901;SDS011;70441;44.758;37.686;2024-03-08T00:13:01;15.23;;;8.80;;
78901;SDS011;70441;44.758;37.686;2024-03-08T00:14:04;18.05;;;10.45;;
78901;SDS011;70441;44.758;37.686;2024-03-08T00:15:11;14.52;;;7.75;;
78901;SDS011;70441;44.758;37.686;2024-03-08T00:16:16;16.25;;;8.98;;
78901;SDS011;70441;44.758;37.686;2024-03-08T00:17:20;13.15;;;7.35;;
78901;SDS011;70441;44.758;37.686;2024-03-08T00:18:25;16.83;;;8.98;;
78901;SDS011;70441;44.758;37.686;2024-03-08T00:19:27;17.85;;;9.30;;
78901;SDS011;70441;44.758;37.686;2024-03-08T00:20:28;16.42;;;8.82;;
78901;SDS011;70441;44.758;37.686;2024-03-08T00:21:30;18.40;;;9.70;;
78901;SDS011;70441;44.758;37.686;2024-03-08T00:23:33;9.55;;;4.60;;
78901;SDS011;70441;44.758;37.686;2024-03-08T00:24:35;14.40;;;8.20;;
78901;SDS011;70441;44.758;37.686;2024-03-08T00:25:36;15.63;;;8.60;;
78901;SDS011;70441;44.758;37.686;2024-03-08T00:26:38;14.00;;;7.97;;
78901;SDS011;70441;44.758;37.686;2024-03-08T00:27:39;17.92;;;10.10;;
78901;SDS011;70441;44.758;37.686;2024-03-08T00:28:41;16.95;;;9.52;;
78901;SDS011;70441;44.758;37.686;2024-03-08T00:29:43;17.83;;;9.10;;
78901;SDS011;70441;44.758;37.686;2024-03-08T00:30:44;19.25;;;9.82;;
78901;SDS011;70441;44.758;37.686;2024-03-08T00:31:47;17.33;;;8.85;;
78901;SDS011;70441;44.758;37.686;2024-03-08T00:32:49;17.15;;;8.77;;
78901;SDS011;70441;44.758;37.686;2024-03-08T00:33:50;16.17;;;9.32;;
78901;SDS011;70441;44.758;37.686;2024-03-08T00:34:55;10.98;;;5.68;;
78901;SDS011;70441;44.758;37.686;2024-03-08T00:35:57;18.00;;;9.68;;
78901;SDS011;70441;44.758;37.686;2024-03-08T00:36:58;12.73;;;6.13;;
78901;SDS011;70441;44.758;37.686;2024-03-08T00:37:59;15.70;;;7.47;;
78901;SDS011;70441;44.758;37.686;2024-03-08T00:39:01;17.65;;;8.82;;
78901;SDS011;70441;44.758;37.686;2024-03-08T00:40:02;18.92;;;8.95;;
78901;SDS011;70441;44.758;37.686;2024-03-08T00:41:05;16.48;;;9.25;;
78901;SDS011;70441;44.758;37.686;2024-03-08T00:42:06;22.75;;;10.32;;
78901;SDS011;70441;44.758;37.686;2024-03-08T00:43:08;14.90;;;7.20;;
78901;SDS011;70441;44.758;37.686;2024-03-08T00:44:09;17.90;;;9.85;;
78901;SDS011;70441;44.758;37.686;2024-03-08T00:45:11;17.65;;;9.55;;
78901;SDS011;70441;44.758;37.686;2024-03-08T00:46:12;18.60;;;9.73;;
78901;SDS011;70441;44.758;37.686;2024-03-08T00:47:15;18.77;;;9.68;;
78901;SDS011;70441;44.758;37.686;2024-03-08T00:48:17;19.95;;;10.10;;
78901;SDS011;70441;44.758;37.686;2024-03-08T00:49:18;16.17;;;8.70;;
78901;SDS011;70441;44.758;37.686;2024-03-08T00:50:19;14.90;;;8.05;;
78901;SDS011;70441;44.758;37.686;2024-03-08T00:51:21;17.27;;;9.85;;
78901;SDS011;70441;44.758;37.686;2024-03-08T00:52:22;19.25;;;9.70;;
78901;SDS011;70441;44.758;37.686;2024-03-08T00:53:25;18.48;;;9.82;;
78901;SDS011;70441;44.758;37.686;2024-03-08T00:54:26;19.13;;;10.60;;
78901;SDS011;70441;44.758;37.686;2024-03-08T00:55:27;17.00;;;8.80;;
78901;SDS011;70441;44.758;37.686;2024-03-08T00:56:30;18.67;;;10.15;;
78901;SDS011;70441;44.758;37.686;2024-03-08T00:57:31;20.48;;;10.02;;
78901;SDS011;70441;44.758;37.686;2024-03-08T00:58:33;20.58;;;10.60;;
78901;SDS011;70441;44.758;37.686;2024-03-08T00:59:35;18.63;;;9.85;;
78901;SDS011;70441;44.758;37.686;2024-03-08T01:00:39;19.80;;;10.63;;
78901;SDS011;70441;44.758;37.686;2024-03-08T01:01:40;19.45;;;10.43;;
78901;SDS011;70441;44.758;37.686;2024-03-08T01:02:42;21.85;;;11.43;;
78901;SDS011;70441;44.758;37.686;2024-03-08T01:03:43;20.95;;;10.55;;
78901;SDS011;70441;44.758;37.686;2024-03-08T01:04:44;20.42;;;11.32;;
78901;SDS011;70441;44.758;37.686;2024-03-08T01:05:47;18.08;;;9.68;;
78901;SDS011;70441;44.758;37.686;2024-03-08T01:06:49;19.55;;;10.57;;
78901;SDS011;70441;44.758;37.686;2024-03-08T01:07:50;20.30;;;10.70;;
78901;SDS011;70441;44.758;37.686;2024-03-08T01:08:52;20.15;;;10.63;;
78901;SDS011;70441;44.758;37.686;2024-03-08T01:09:53;19.02;;;10.13;;
78901;SDS011;70441;44.758;37.686;2024-03-08T01:10:54;20.63;;;11.02;;
78901;SDS011;70441;44.758;37.686;2024-03-08T01:11:56;19.85;;;10.88;;
78901;SDS011;70441;44.758;37.686;2024-03-08T01:12:58;20.88;;;10.98;;
78901;SDS011;70441;44.758;37.686;2024-03-08T01:14:00;20.38;;;10.65;;
78901;SDS011;70441;44.758;37.686;2024-03-08T01:15:02;22.30;;;12.27;;
78901;SDS011;70441;44.758;37.686;2024-03-08T01:16:04;21.15;;;12.30;;
78901;SDS011;70441;44.758;37.686;2024-03-08T01:17:06;22.58;;;10.73;;
78901;SDS011;70441;44.758;37.686;2024-03-08T01:18:07;17.13;;;9.77;;
78901;SDS011;70441;44.758;37.686;2024-03-08T01:19:09;19.92;;;10.13;;
78901;SDS011;70441;44.758;37.686;2024-03-08T01:20:10;16.83;;;9.45;;
78901;SDS011;70441;44.758;37.686;2024-03-08T01:21:13;18.73;;;10.23;;
78901;SDS011;70441;44.758;37.686;2024-03-08T01:22:14;19.75;;;10.13;;
78901;SDS011;70441;44.758;37.686;2024-03-08T01:23:16;22.73;;;11.80;;
78901;SDS011;70441;44.758;37.686;2024-03-08T01:24:17;21.45;;;11.20;;
78901;SDS011;70441;44.758;37.686;2024-03-08T01:25:19;22.67;;;11.57;;
78901;SDS011;70441;44.758;37.686;2024-03-08T01:26:20;23.10;;;11.35;;
78901;SDS011;70441;44.758;37.686;2024-03-08T01:27:21;22.35;;;11.35;;
78901;SDS011;70441;44.758;37.686;2024-03-08T01:28:23;22.65;;;11.32;;
78901;SDS011;70441;44.758;37.686;2024-03-08T01:29:27;20.75;;;10.65;;
78901;SDS011;70441;44.758;37.686;2024-03-08T01:30:30;21.55;;;11.13;;
78901;SDS011;70441;44.758;37.686;2024-03-08T01:31:33;20.60;;;10.75;;
78901;SDS011;70441;44.758;37.686;2024-03-08T01:32:34;18.90;;;10.23;;
78901;SDS011;70441;44.758;37.686;2024-03-08T01:33:36;20.02;;;10.50;;
78901;SDS011;70441;44.758;37.686;2024-03-08T01:34:37;21.75;;;12.20;;
78901;SDS011;70441;44.758;37.686;2024-03-08T01:35:39;18.65;;;9.55;;
78901;SDS011;70441;44.758;37.686;2024-03-08T01:36:42;19.00;;;10.48;;
78901;SDS011;70441;44.758;37.686;2024-03-08T01:37:43;22.58;;;11.38;;
78901;SDS011;70441;44.758;37.686;2024-03-08T01:38:44;19.15;;;10.90;;
78901;SDS011;70441;44.758;37.686;2024-03-08T01:39:46;20.13;;;10.95;;
78901;SDS011;70441;44.758;37.686;2024-03-08T01:40:47;19.77;;;10.80;;
78901;SDS011;70441;44.758;37.686;2024-03-08T01:42:51;22.25;;;10.18;;
78901;SDS011;70441;44.758;37.686;2024-03-08T01:43:53;19.77;;;10.70;;
78901;SDS011;70441;44.758;37.686;2024-03-08T01:44:55;21.38;;;11.30;;
78901;SDS011;70441;44.758;37.686;2024-03-08T01:45:59;21.25;;;11.07;;
78901;SDS011;70441;44.758;37.686;2024-03-08T01:47:01;25.80;;;13.18;;
78901;SDS011;70441;44.758;37.686;2024-03-08T01:48:02;16.50;;;8.90;;
78901;SDS011;70441;44.758;37.686;2024-03-08T01:49:05;21.48;;;10.88;;
78901;SDS011;70441;44.758;37.686;2024-03-08T01:50:06;20.23;;;10.45;;
78901;SDS011;70441;44.758;37.686;2024-03-08T01:51:08;22.10;;;11.13;;
78901;SDS011;70441;44.758;37.686;2024-03-08T01:52:12;22.25;;;11.48;;
78901;SDS011;70441;44.758;37.686;2024-03-08T01:53:14;22.55;;;11.85;;
78901;SDS011;70441;44.758;37.686;2024-03-08T01:54:16;20.92;;;10.60;;
78901;SDS011;70441;44.758;37.686;2024-03-08T01:55:18;20.90;;;11.05;;
78901;SDS011;70441;44.758;37.686;2024-03-08T01:56:20;25.23;;;12.00;;
78901;SDS011;70441;44.758;37.686;2024-03-08T01:57:21;19.42;;;9.95;;
78901;SDS011;70441;44.758;37.686;2024-03-08T01:58:24;23.15;;;11.15;;
78901;SDS011;70441;44.758;37.686;2024-03-08T01:59:29;23.15;;;10.38;;
78901;SDS011;70441;44.758;37.686;2024-03-08T02:00:30;20.50;;;10.65;;
78901;SDS011;70441;44.758;37.686;2024-03-08T02:01:34;22.58;;;10.95;;
78901;SDS011;70441;44.758;37.686;2024-03-08T02:02:36;22.48;;;12.35;;
78901;SDS011;70441;44.758;37.686;2024-03-08T02:03:38;21.80;;;11.73;;
78901;SDS011;70441;44.758;37.686;2024-03-08T02:04:40;25.98;;;12.55;;
78901;SDS011;70441;44.758;37.686;2024-03-08T02:05:41;23.98;;;11.88;;
78901;SDS011;70441;44.758;37.686;2024-03-08T02:06:42;21.10;;;11.20;;
78901;SDS011;70441;44.758;37.686;2024-03-08T02:07:45;22.45;;;11.85;;
78901;SDS011;70441;44.758;37.686;2024-03-08T02:08:47;22.40;;;12.05;;
78901;SDS011;70441;44.758;37.686;2024-03-08T02:09:48;25.50;;;12.32;;
78901;SDS011;70441;44.758;37.686;2024-03-08T02:10:50;23.88;;;11.63;;
78901;SDS011;70441;44.758;37.686;2024-03-08T02:11:51;23.15;;;11.75;;
78901;SDS011;70441;44.758;37.686;2024-03-08T02:12:55;20.70;;;11.40;;
78901;SDS011;70441;44.758;37.686;2024-03-08T02:13:56;20.33;;;11.00;;
78901;SDS011;70441;44.758;37.686;2024-03-08T02:14:59;22.38;;;11.55;;
78901;SDS011;70441;44.758;37.686;2024-03-08T02:16:00;23.27;;;11.65;;
78901;SDS011;70441;44.758;37.686;2024-03-08T02:17:02;21.95;;;10.75;;
78901;SDS011;70441;44.758;37.686;2024-03-08T02:18:03;20.80;;;10.02;;
78901;SDS011;70441;44.758;37.686;2024-03-08T02:19:05;21.92;;;11.63;;
78901;SDS011;70441;44.758;37.686;2024-03-08T02:20:10;22.25;;;10.70;;
78901;SDS011;70441;44.758;37.686;2024-03-08T02:21:14;22.55;;;10.35;;
78901;SDS011;70441;44.758;37.686;2024-03-08T02:22:22;23.30;;;11.05;;
78901;SDS011;70441;44.758;37.686;2024-03-08T02:23:23;17.33;;;7.97;;
78901;SDS011;70441;44.758;37.686;2024-03-08T02:24:28;25.35;;;11.35;;
78901;SDS011;70441;44.758;37.686;2024-03-08T02:25:29;22.70;;;12.05;;
78901;SDS011;70441;44.758;37.686;2024-03-08T02:26:32;20.63;;;11.00;;
78901;SDS011;70441;44.758;37.686;2024-03-08T02:27:33;20.75;;;10.20;;
78901;SDS011;70441;44.758;37.686;2024-03-08T02:28:37;22.13;;;10.85;;
78901;SDS011;70441;44.758;37.686;2024-03-08T02:29:40;21.35;;;10.75;;
78901;SDS011;70441;44.758;37.686;2024-03-08T02:30:48;21.58;;;10.60;;
78901;SDS011;70441;44.758;37.686;2024-03-08T02:31:51;23.10;;;10.82;;
78901;SDS011;70441;44.758;37.686;2024-03-08T02:32:53;24.02;;;11.95;;
78901;SDS011;70441;44.758;37.686;2024-03-08T02:33:54;21.50;;;10.90;;
78901;SDS011;70441;44.758;37.686;2024-03-08T02:34:56;21.05;;;10.57;;
78901;SDS011;70441;44.758;37.686;2024-03-08T02:36:00;22.40;;;11.30;;
78901;SDS011;70441;44.758;37.686;2024-03-08T02:37:02;22.85;;;10.68;;
78901;SDS011;70441;44.758;37.686;2024-03-08T02:38:04;20.80;;;11.52;;
78901;SDS011;70441;44.758;37.686;2024-03-08T02:39:06;19.25;;;10.45;;
78901;SDS011;70441;44.758;37.686;2024-03-08T02:40:07;21.77;;;10.88;;
78901;SDS011;70441;44.758;37.686;2024-03-08T02:41:09;19.90;;;10.57;;
78901;SDS011;70441;44.758;37.686;2024-03-08T02:42:11;21.17;;;10.95;;
78901;SDS011;70441;44.758;37.686;2024-03-08T02:43:14;22.83;;;11.02;;
78901;SDS011;70441;44.758;37.686;2024-03-08T02:44:17;21.60;;;10.75;;
78901;SDS011;70441;44.758;37.686;2024-03-08T02:45:18;23.38;;;11.40;;
78901;SDS011;70441;44.758;37.686;2024-03-08T02:46:23;17.40;;;9.30;;
78901;SDS011;70441;44.758;37.686;2024-03-08T02:47:25;20.80;;;10.65;;
78901;SDS011;70441;44.758;37.686;2024-03-08T02:48:27;19.58;;;10.95;;
78901;SDS011;70441;44.758;37.686;2024-03-08T02:49:28;12.05;;;5.82;;
78901;SDS011;70441;44.758;37.686;2024-03-08T02:50:29;21.17;;;10.57;;
78901;SDS011;70441;44.758;37.686;2024-03-08T02:51:31;18.98;;;9.20;;
78901;SDS011;70441;44.758;37.686;2024-03-08T02:52:32;24.85;;;11.15;;
78901;SDS011;70441;44.758;37.686;2024-03-08T02:53:34;21.42;;;11.35;;
78901;SDS011;70441;44.758;37.686;2024-03-08T02:54:36;27.80;;;11.70;;
78901;SDS011;70441;44.758;37.686;2024-03-08T02:55:38;25.27;;;12.98;;
78901;SDS011;70441;44.758;37.686;2024-03-08T02:57:42;24.88;;;10.77;;
78901;SDS011;70441;44.758;37.686;2024-03-08T02:58:44;22.45;;;11.00;;
78901;SDS011;70441;44.758;37.686;2024-03-08T02:59:49;20.98;;;10.25;;
78901;SDS011;70441;44.758;37.686;2024-03-08T03:00:51;20.05;;;10.02;;
78901;SDS011;70441;44.758;37.686;2024-03-08T03:01:52;26.40;;;11.63;;
78901;SDS011;70441;44.758;37.686;2024-03-08T03:02:53;20.13;;;10.32;;
78901;SDS011;70441;44.758;37.686;2024-03-08T03:03:55;26.38;;;11.57;;
78901;SDS011;70441;44.758;37.686;2024-03-08T03:04:56;22.30;;;11.40;;
78901;SDS011;70441;44.758;37.686;2024-03-08T03:05:58;25.58;;;12.55;;
78901;SDS011;70441;44.758;37.686;2024-03-08T03:06:59;20.42;;;11.00;;
78901;SDS011;70441;44.758;37.686;2024-03-08T03:08:00;25.90;;;12.93;;
78901;SDS011;70441;44.758;37.686;2024-03-08T03:09:02;24.15;;;10.45;;
78901;SDS011;70441;44.758;37.686;2024-03-08T03:10:07;24.73;;;11.38;;
78901;SDS011;70441;44.758;37.686;2024-03-08T03:11:09;27.08;;;13.68;;
78901;SDS011;70441;44.758;37.686;2024-03-08T03:12:10;25.25;;;12.20;;
78901;SDS011;70441;44.758;37.686;2024-03-08T03:13:12;18.50;;;9.02;;
78901;SDS011;70441;44.758;37.686;2024-03-08T03:14:14;24.58;;;11.90;;
78901;SDS011;70441;44.758;37.686;2024-03-08T03:15:17;22.17;;;10.90;;
78901;SDS011;70441;44.758;37.686;2024-03-08T03:16:19;23.48;;;12.05;;
78901;SDS011;70441;44.758;37.686;2024-03-08T03:17:20;25.10;;;12.07;;
78901;SDS011;70441;44.758;37.686;2024-03-08T03:18:22;24.27;;;12.25;;
78901;SDS011;70441;44.758;37.686;2024-03-08T03:20:25;21.65;;;10.73;;
78901;SDS011;70441;44.758;37.686;2024-03-08T03:21:33;21.77;;;10.68;;
78901;SDS011;70441;44.758;37.686;2024-03-08T03:22:36;24.80;;;11.75;;
78901;SDS011;70441;44.758;37.686;2024-03-08T03:23:38;19.42;;;9.15;;
78901;SDS011;70441;44.758;37.686;2024-03-08T03:24:43;23.00;;;11.45;;
78901;SDS011;70441;44.758;37.686;2024-03-08T03:25:47;22.83;;;11.45;;
78901;SDS011;70441;44.758;37.686;2024-03-08T03:26:48;24.85;;;11.27;;
78901;SDS011;70441;44.758;37.686;2024-03-08T03:27:50;24.08;;;12.63;;
78901;SDS011;70441;44.758;37.686;2024-03-08T03:28:53;23.75;;;12.00;;
78901;SDS011;70441;44.758;37.686;2024-03-08T03:29:54;26.88;;;12.85;;
78901;SDS011;70441;44.758;37.686;2024-03-08T03:30:56;28.77;;;13.10;;
78901;SDS011;70441;44.758;37.686;2024-03-08T03:32:01;28.42;;;12.80;;
78901;SDS011;70441;44.758;37.686;2024-03-08T03:33:04;24.00;;;12.27;;
78901;SDS011;70441;44.758;37.686;2024-03-08T03:34:08;24.75;;;12.13;;
78901;SDS011;70441;44.758;37.686;2024-03-08T03:35:09;25.13;;;12.32;;
78901;SDS011;70441;44.758;37.686;2024-03-08T03:36:12;24.30;;;12.50;;
78901;SDS011;70441;44.758;37.686;2024-03-08T03:37:15;25.20;;;12.05;;
78901;SDS011;70441;44.758;37.686;2024-03-08T03:38:18;23.65;;;12.25;;
78901;SDS011;70441;44.758;37.686;2024-03-08T03:39:21;23.45;;;12.32;;
78901;SDS011;70441;44.758;37.686;2024-03-08T03:40:23;24.58;;;12.25;;
78901;SDS011;70441;44.758;37.686;2024-03-08T03:41:26;25.75;;;11.85;;
78901;SDS011;70441;44.758;37.686;2024-03-08T03:42:27;25.15;;;12.48;;
78901;SDS011;70441;44.758;37.686;2024-03-08T03:43:28;23.95;;;11.07;;
78901;SDS011;70441;44.758;37.686;2024-03-08T03:44:29;25.27;;;13.00;;
78901;SDS011;70441;44.758;37.686;2024-03-08T03:45:31;25.50;;;11.73;;
78901;SDS011;70441;44.758;37.686;2024-03-08T03:46:35;27.10;;;13.80;;
78901;SDS011;70441;44.758;37.686;2024-03-08T03:47:37;28.30;;;13.50;;
78901;SDS011;70441;44.758;37.686;2024-03-08T03:48:38;27.20;;;12.68;;
78901;SDS011;70441;44.758;37.686;2024-03-08T03:49:42;29.52;;;13.90;;
78901;SDS011;70441;44.758;37.686;2024-03-08T03:50:44;26.58;;;12.32;;
78901;SDS011;70441;44.758;37.686;2024-03-08T03:51:45;24.33;;;11.18;;
78901;SDS011;70441;44.758;37.686;2024-03-08T03:52:47;27.85;;;14.20;;
78901;SDS011;70441;44.758;37.686;2024-03-08T03:53:48;25.90;;;13.13;;
78901;SDS011;70441;44.758;37.686;2024-03-08T03:54:50;27.75;;;13.35;;
78901;SDS011;70441;44.758;37.686;2024-03-08T03:55:51;26.77;;;12.35;;
78901;SDS011;70441;44.758;37.686;2024-03-08T03:56:52;26.48;;;13.02;;
78901;SDS011;70441;44.758;37.686;2024-03-08T03:57:54;28.25;;;13.20;;
78901;SDS011;70441;44.758;37.686;2024-03-08T03:58:56;26.38;;;13.07;;
78901;SDS011;70441;44.758;37.686;2024-03-08T03:59:57;33.95;;;15.50;;
78901;SDS011;70441;44.758;37.686;2024-03-08T04:01:13;27.33;;;13.02;;
78901;SDS011;70441;44.758;37.686;2024-03-08T04:02:15;29.40;;;13.93;;
78901;SDS011;70441;44.758;37.686;2024-03-08T04:03:16;26.75;;;12.93;;
78901;SDS011;70441;44.758;37.686;2024-03-08T04:04:17;25.90;;;13.07;;
78901;SDS011;70441;44.758;37.686;2024-03-08T04:05:19;27.00;;;13.00;;
78901;SDS011;70441;44.758;37.686;2024-03-08T04:06:20;32.70;;;12.57;;
78901;SDS011;70441;44.758;37.686;2024-03-08T04:07:21;27.60;;;13.25;;
78901;SDS011;70441;44.758;37.686;2024-03-08T04:08:23;30.05;;;13.73;;
78901;SDS011;70441;44.758;37.686;2024-03-08T04:09:27;25.20;;;12.70;;
78901;SDS011;70441;44.758;37.686;2024-03-08T04:10:28;28.83;;;12.95;;
78901;SDS011;70441;44.758;37.686;2024-03-08T04:11:29;26.73;;;13.57;;
78901;SDS011;70441;44.758;37.686;2024-03-08T04:12:31;26.30;;;12.98;;
78901;SDS011;70441;44.758;37.686;2024-03-08T04:13:33;24.17;;;10.93;;
78901;SDS011;70441;44.758;37.686;2024-03-08T04:14:34;26.35;;;12.85;;
78901;SDS011;70441;44.758;37.686;2024-03-08T04:15:35;27.63;;;12.98;;
78901;SDS011;70441;44.758;37.686;2024-03-08T04:16:38;27.77;;;12.40;;
78901;SDS011;70441;44.758;37.686;2024-03-08T04:17:39;27.48;;;13.32;;
78901;SDS011;70441;44.758;37.686;2024-03-08T04:18:41;30.40;;;13.43;;
78901;SDS011;70441;44.758;37.686;2024-03-08T04:19:44;27.90;;;13.38;;
78901;SDS011;70441;44.758;37.686;2024-03-08T04:20:45;27.70;;;12.57;;
78901;SDS011;70441;44.758;37.686;2024-03-08T04:21:46;28.50;;;14.00;;
78901;SDS011;70441;44.758;37.686;2024-03-08T04:22:48;27.27;;;13.68;;
78901;SDS011;70441;44.758;37.686;2024-03-08T04:23:50;26.40;;;13.93;;
78901;SDS011;70441;44.758;37.686;2024-03-08T04:24:51;26.17;;;12.93;;
78901;SDS011;70441;44.758;37.686;2024-03-08T04:25:52;24.77;;;12.38;;
78901;SDS011;70441;44.758;37.686;2024-03-08T04:26:53;24.42;;;12.00;;
78901;SDS011;70441;44.758;37.686;2024-03-08T04:27:55;27.13;;;13.05;;
78901;SDS011;70441;44.758;37.686;2024-03-08T04:28:57;24.15;;;11.60;;
78901;SDS011;70441;44.758;37.686;2024-03-08T04:29:58;24.77;;;12.43;;
78901;SDS011;70441;44.758;37.686;2024-03-08T04:31:00;24.73;;;12.23;;
78901;SDS011;70441;44.758;37.686;2024-03-08T04:32:03;23.38;;;10.88;;
78901;SDS011;70441;44.758;37.686;2024-03-08T04:33:05;26.60;;;11.13;;
78901;SDS011;70441;44.758;37.686;2024-03-08T04:34:10;22.42;;;11.05;;
78901;SDS011;70441;44.758;37.686;2024-03-08T04:35:12;26.63;;;12.20;;
78901;SDS011;70441;44.758;37.686;2024-03-08T04:36:13;24.90;;;12.18;;
78901;SDS011;70441;44.758;37.686;2024-03-08T04:37:14;28.50;;;13.43;;
78901;SDS011;70441;44.758;37.686;2024-03-08T04:38:19;24.20;;;11.15;;
78901;SDS011;70441;44.758;37.686;2024-03-08T04:39:20;26.25;;;12.68;;
78901;SDS011;70441;44.758;37.686;2024-03-08T04:40:22;26.50;;;12.38;;
78901;SDS011;70441;44.758;37.686;2024-03-08T04:41:23;25.52;;;12.63;;
78901;SDS011;70441;44.758;37.686;2024-03-08T04:42:25;26.02;;;13.60;;
78901;SDS011;70441;44.758;37.686;2024-03-08T04:43:30;22.17;;;10.98;;
78901;SDS011;70441;44.758;37.686;2024-03-08T04:44:31;28.20;;;12.88;;
78901;SDS011;70441;44.758;37.686;2024-03-08T04:45:34;29.27;;;12.18;;
78901;SDS011;70441;44.758;37.686;2024-03-08T04:46:35;26.02;;;13.32;;
78901;SDS011;70441;44.758;37.686;2024-03-08T04:47:37;27.88;;;12.75;;
78901;SDS011;70441;44.758;37.686;2024-03-08T04:48:38;32.47;;;14.00;;
78901;SDS011;70441;44.758;37.686;2024-03-08T04:49:40;20.80;;;10.35;;
78901;SDS011;70441;44.758;37.686;2024-03-08T04:50:41;27.85;;;13.05;;
78901;SDS011;70441;44.758;37.686;2024-03-08T04:51:42;24.63;;;12.32;;
78901;SDS011;70441;44.758;37.686;2024-03-08T04:52:45;29.02;;;12.95;;
78901;SDS011;70441;44.758;37.686;2024-03-08T04:53:47;28.08;;;13.10;;
78901;SDS011;70441;44.758;37.686;2024-03-08T04:54:48;28.88;;;13.07;;
78901;SDS011;70441;44.758;37.686;2024-03-08T04:55:49;28.58;;;14.18;;
78901;SDS011;70441;44.758;37.686;2024-03-08T04:56:51;25.52;;;12.32;;
78901;SDS011;70441;44.758;37.686;2024-03-08T04:57:52;27.73;;;13.98;;
78901;SDS011;70441;44.758;37.686;2024-03-08T04:58:54;26.83;;;12.95;;
78901;SDS011;70441;44.758;37.686;2024-03-08T04:59:55;27.50;;;12.52;;
78901;SDS011;70441;44.758;37.686;2024-03-08T05:00:56;27.58;;;12.50;;
78901;SDS011;70441;44.758;37.686;2024-03-08T05:01:58;30.60;;;12.57;;
78901;SDS011;70441;44.758;37.686;2024-03-08T05:03:01;27.30;;;13.63;;
78901;SDS011;70441;44.758;37.686;2024-03-08T05:04:03;26.50;;;11.70;;
78901;SDS011;70441;44.758;37.686;2024-03-08T05:05:05;24.77;;;11.57;;
78901;SDS011;70441;44.758;37.686;2024-03-08T05:06:07;27.52;;;11.90;;
78901;SDS011;70441;44.758;37.686;2024-03-08T05:07:09;24.42;;;12.45;;
78901;SDS011;70441;44.758;37.686;2024-03-08T05:08:11;25.33;;;13.00;;
78901;SDS011;70441;44.758;37.686;2024-03-08T05:09:12;27.02;;;12.13;;
78901;SDS011;70441;44.758;37.686;2024-03-08T05:10:16;25.25;;;11.93;;
78901;SDS011;70441;44.758;37.686;2024-03-08T05:11:18;28.17;;;12.40;;
78901;SDS011;70441;44.758;37.686;2024-03-08T05:12:19;25.05;;;11.55;;
78901;SDS011;70441;44.758;37.686;2024-03-08T05:13:21;28.33;;;11.77;;
78901;SDS011;70441;44.758;37.686;2024-03-08T05:14:22;27.35;;;12.20;;
78901;SDS011;70441;44.758;37.686;2024-03-08T05:15:24;24.10;;;11.27;;
78901;SDS011;70441;44.758;37.686;2024-03-08T05:16:25;25.83;;;12.18;;
78901;SDS011;70441;44.758;37.686;2024-03-08T05:17:27;29.02;;;12.65;;
78901;SDS011;70441;44.758;37.686;2024-03-08T05:18:28;24.58;;;11.40;;
78901;SDS011;70441;44.758;37.686;2024-03-08T05:19:31;25.40;;;12.10;;
78901;SDS011;70441;44.758;37.686;2024-03-08T05:20:33;28.10;;;12.00;;
78901;SDS011;70441;44.758;37.686;2024-03-08T05:21:34;27.48;;;11.50;;
78901;SDS011;70441;44.758;37.686;2024-03-08T05:22:36;24.95;;;11.75;;
78901;SDS011;70441;44.758;37.686;2024-03-08T05:23:37;33.53;;;13.40;;
78901;SDS011;70441;44.758;37.686;2024-03-08T05:24:39;25.20;;;11.25;;
78901;SDS011;70441;44.758;37.686;2024-03-08T05:25:40;26.33;;;11.95;;
78901;SDS011;70441;44.758;37.686;2024-03-08T05:26:42;25.83;;;11.88;;
78901;SDS011;70441;44.758;37.686;2024-03-08T05:27:43;26.25;;;12.02;;
78901;SDS011;70441;44.758;37.686;2024-03-08T05:28:45;27.75;;;11.68;;
78901;SDS011;70441;44.758;37.686;2024-03-08T05:29:47;22.42;;;10.93;;
78901;SDS011;70441;44.758;37.686;2024-03-08T05:30:49;22.05;;;11.60;;
78901;SDS011;70441;44.758;37.686;2024-03-08T05:31:51;23.42;;;10.60;;
78901;SDS011;70441;44.758;37.686;2024-03-08T05:32:53;24.70;;;11.90;;
78901;SDS011;70441;44.758;37.686;2024-03-08T05:33:55;25.80;;;11.75;;
78901;SDS011;70441;44.758;37.686;2024-03-08T05:34:56;24.95;;;11.70;;
78901;SDS011;70441;44.758;37.686;2024-03-08T05:35:57;27.00;;;11.98;;
78901;SDS011;70441;44.758;37.686;2024-03-08T05:37:00;25.30;;;11.50;;
78901;SDS011;70441;44.758;37.686;2024-03-08T05:38:02;27.13;;;12.38;;
78901;SDS011;70441;44.758;37.686;2024-03-08T05:39:03;19.10;;;8.23;;
78901;SDS011;70441;44.758;37.686;2024-03-08T05:40:07;20.98;;;9.68;;
78901;SDS011;70441;44.758;37.686;2024-03-08T05:41:10;28.83;;;11.82;;
78901;SDS011;70441;44.758;37.686;2024-03-08T05:42:15;24.45;;;12.38;;
78901;SDS011;70441;44.758;37.686;2024-03-08T05:43:17;24.60;;;11.60;;
78901;SDS011;70441;44.758;37.686;2024-03-08T05:44:20;24.73;;;11.05;;
78901;SDS011;70441;44.758;37.686;2024-03-08T05:45:22;26.10;;;12.45;;
78901;SDS011;70441;44.758;37.686;2024-03-08T05:46:24;21.13;;;9.68;;
78901;SDS011;70441;44.758;37.686;2024-03-08T05:47:26;26.35;;;9.48;;
78901;SDS011;70441;44.758;37.686;2024-03-08T05:48:27;25.75;;;11.70;;
78901;SDS011;70441;44.758;37.686;2024-03-08T05:49:28;29.35;;;11.27;;
78901;SDS011;70441;44.758;37.686;2024-03-08T05:50:30;21.73;;;10.38;;
78901;SDS011;70441;44.758;37.686;2024-03-08T05:51:36;23.40;;;10.77;;
78901;SDS011;70441;44.758;37.686;2024-03-08T05:52:39;26.60;;;11.48;;
78901;SDS011;70441;44.758;37.686;2024-03-08T05:53:41;25.80;;;13.00;;
78901;SDS011;70441;44.758;37.686;2024-03-08T05:54:42;26.52;;;11.85;;
78901;SDS011;70441;44.758;37.686;2024-03-08T05:55:44;22.27;;;11.15;;
78901;SDS011;70441;44.758;37.686;2024-03-08T05:56:45;29.75;;;13.05;;
78901;SDS011;70441;44.758;37.686;2024-03-08T05:57:48;24.80;;;10.95;;
78901;SDS011;70441;44.758;37.686;2024-03-08T05:58:49;24.15;;;11.98;;
78901;SDS011;70441;44.758;37.686;2024-03-08T05:59:51;29.88;;;13.43;;
78901;SDS011;70441;44.758;37.686;2024-03-08T06:00:52;26.48;;;11.38;;
78901;SDS011;70441;44.758;37.686;2024-03-08T06:01:53;24.35;;;11.00;;
78901;SDS011;70441;44.758;37.686;2024-03-08T06:02:55;23.77;;;11.15;;